»·PEaware :: N686VA KSBA-KSMX

N686VA :: KSBA-KSMX

FLIGHT INFORMATION

Flight Status: Arrived
Operator: Privately registered:
United States
More flights under this callsign
Pilot: Yohannes T. (42741)
Aircraft: CESSNA 172 SKYHAWK
(C172)
More flights by this aircraft type
Origin: KSBA Santa Barbara Mun
United States
Destination: KSMX Santa Maria Pub/Capt Hancock
United States
More flights between these airports :: More routes between these airports
Route: FLOUT5 RZS
File this flight plan on PilotEdge
Remarks:
Altitude:
(Current/Filed)
7,000ft
Speed:
(Current/Filed)
110kts
Departed: 24-Jan-23 07:16 PM
Arrived: 24-Jan-23 07:57 PM
Distance/Time
Traveled:
41nm/0:40
Distance/Time
To Go:
Arrived

Flight Plot

Page will automatically refresh every two minutes.


Map Options




Map Legend


Flown Route
Filed Route
Departure Airport
Arrival Airport
Navaid (VOR, NDB)
Fix

Horizontal Profiles

Position Reports

Time Latitude Longitude Heading Altitude Ground
Speed
24-Jan-23 19:04 34.424019 -119.836878 75 11ft 0kts
24-Jan-23 19:05 34.424019 -119.836878 75 17ft 0kts
24-Jan-23 19:06 34.424019 -119.836878 75 17ft 0kts
24-Jan-23 19:07 34.424019 -119.836878 75 17ft 0kts
24-Jan-23 19:08 34.424019 -119.836878 75 17ft 0kts
24-Jan-23 19:09 34.424019 -119.836878 75 17ft 0kts
24-Jan-23 19:10 34.424019 -119.836878 75 17ft 0kts
24-Jan-23 19:11 34.424019 -119.836878 75 17ft 0kts
24-Jan-23 19:12 34.424669 -119.837642 339 19ft 21kts
24-Jan-23 19:13 34.426929 -119.834721 21 16ft 0kts
24-Jan-23 19:14 34.426929 -119.834721 21 16ft 0kts
24-Jan-23 19:15 34.427874 -119.836876 269 15ft 48kts
24-Jan-23 19:16 34.425456 -119.864666 241 779ft 89kts
24-Jan-23 19:17 34.402658 -119.875724 195 1820ft 91kts
24-Jan-23 19:18 34.377675 -119.881806 193 2698ft 91kts
24-Jan-23 19:19 34.353018 -119.890593 206 3496ft 93kts
24-Jan-23 19:20 34.329724 -119.904359 207 4240ft 94kts
24-Jan-23 19:21 34.306165 -119.918303 211 4941ft 94kts
24-Jan-23 19:22 34.283300 -119.934436 209 5588ft 96kts
24-Jan-23 19:23 34.256139 -119.952844 216 5671ft 115kts
24-Jan-23 19:24 34.267262 -119.966647 48 5514ft 120kts
24-Jan-23 19:25 34.286726 -119.935002 42 5600ft 116kts
24-Jan-23 19:26 34.313076 -119.912782 29 5618ft 116kts
24-Jan-23 19:27 34.341686 -119.894616 26 5624ft 116kts
24-Jan-23 19:28 34.369477 -119.874199 32 5642ft 117kts
24-Jan-23 19:29 34.397561 -119.854657 32 5742ft 117kts
24-Jan-23 19:30 34.425389 -119.834177 30 5879ft 117kts
24-Jan-23 19:31 34.454031 -119.815602 36 5869ft 117kts
24-Jan-23 19:32 34.480777 -119.793067 31 5811ft 116kts
24-Jan-23 19:33 34.508979 -119.774098 4 5676ft 114kts
24-Jan-23 19:34 34.527782 -119.801624 288 5865ft 113kts
24-Jan-23 19:35 34.540862 -119.836239 305 6023ft 113kts
24-Jan-23 19:36 34.558196 -119.867816 302 5815ft 115kts
24-Jan-23 19:37 34.575063 -119.900087 299 5613ft 112kts
24-Jan-23 19:38 34.588691 -119.934500 299 5605ft 113kts
24-Jan-23 19:39 34.604197 -119.967741 298 5726ft 114kts
24-Jan-23 19:40 34.619717 -120.001240 301 5670ft 113kts
24-Jan-23 19:41 34.635985 -120.034134 300 5550ft 112kts
24-Jan-23 19:42 34.651792 -120.067302 299 5551ft 113kts
24-Jan-23 19:43 34.667799 -120.100354 302 5478ft 114kts
24-Jan-23 19:44 34.683222 -120.134015 299 5623ft 114kts
24-Jan-23 19:45 34.698918 -120.167392 302 5654ft 113kts
24-Jan-23 19:46 34.715230 -120.200206 303 5405ft 112kts
24-Jan-23 19:47 34.732228 -120.232120 302 4999ft 112kts
24-Jan-23 19:48 34.747241 -120.265302 303 4609ft 111kts
24-Jan-23 19:49 34.767574 -120.293130 314 4229ft 110kts
24-Jan-23 19:50 34.789532 -120.319205 315 3650ft 110kts
24-Jan-23 19:51 34.811712 -120.344427 321 3053ft 109kts
24-Jan-23 19:52 34.832159 -120.371047 314 2465ft 107kts
24-Jan-23 19:53 34.852317 -120.397978 316 1975ft 102kts
24-Jan-23 19:54 34.872322 -120.420518 312 1247ft 98kts
24-Jan-23 19:55 34.888877 -120.441117 315 489ft 70kts
24-Jan-23 19:56 34.898180 -120.450311 0 248ft 0kts
24-Jan-23 19:57 34.898180 -120.450311 0 248ft 0kts
24-Jan-23 19:58 34.900121 -120.450421 317 244ft 16kts

Navigation Log

Ident Type
Flight plan parsing failed, navigation log unavailable